sensor_id;sensor_type;location;lat;lon;timestamp;temperature;humidity
37806;DHT22;25082;50.870;0.022;2022-09-13T00:00:34;20.50;78.30
37806;DHT22;25082;50.870;0.022;2022-09-13T00:03:00;20.50;78.30
37806;DHT22;25082;50.870;0.022;2022-09-13T00:05:26;20.50;78.20
37806;DHT22;25082;50.870;0.022;2022-09-13T00:07:52;20.50;78.30
37806;DHT22;25082;50.870;0.022;2022-09-13T00:10:18;20.50;78.30
37806;DHT22;25082;50.870;0.022;2022-09-13T00:12:44;20.50;78.30
37806;DHT22;25082;50.870;0.022;2022-09-13T00:15:10;20.50;78.20
37806;DHT22;25082;50.870;0.022;2022-09-13T00:17:36;20.50;78.30
37806;DHT22;25082;50.870;0.022;2022-09-13T00:20:03;20.50;78.20
37806;DHT22;25082;50.870;0.022;2022-09-13T00:22:29;20.50;78.20
37806;DHT22;25082;50.870;0.022;2022-09-13T00:24:55;20.50;78.30
37806;DHT22;25082;50.870;0.022;2022-09-13T00:27:21;20.50;78.30
37806;DHT22;25082;50.870;0.022;2022-09-13T00:29:46;20.50;78.30
37806;DHT22;25082;50.870;0.022;2022-09-13T00:32:12;20.50;78.30
37806;DHT22;25082;50.870;0.022;2022-09-13T00:34:38;20.50;78.40
37806;DHT22;25082;50.870;0.022;2022-09-13T00:37:04;20.50;78.40
37806;DHT22;25082;50.870;0.022;2022-09-13T00:39:29;20.50;78.30
37806;DHT22;25082;50.870;0.022;2022-09-13T00:41:55;20.50;78.40
37806;DHT22;25082;50.870;0.022;2022-09-13T00:47:22;20.50;78.20
37806;DHT22;25082;50.870;0.022;2022-09-13T00:49:52;20.50;78.30
37806;DHT22;25082;50.870;0.022;2022-09-13T00:52:21;20.50;78.30
37806;DHT22;25082;50.870;0.022;2022-09-13T00:54:59;20.50;78.30
37806;DHT22;25082;50.870;0.022;2022-09-13T00:57:28;20.50;78.30
37806;DHT22;25082;50.870;0.022;2022-09-13T01:00:03;20.50;78.30
37806;DHT22;25082;50.870;0.022;2022-09-13T01:02:54;20.50;78.20
37806;DHT22;25082;50.870;0.022;2022-09-13T01:05:25;20.50;78.30
37806;DHT22;25082;50.870;0.022;2022-09-13T01:07:53;20.50;78.30
37806;DHT22;25082;50.870;0.022;2022-09-13T01:10:20;20.50;78.30
37806;DHT22;25082;50.870;0.022;2022-09-13T01:13:05;20.50;78.20
37806;DHT22;25082;50.870;0.022;2022-09-13T01:15:42;20.50;78.30
37806;DHT22;25082;50.870;0.022;2022-09-13T01:18:08;20.50;78.30
37806;DHT22;25082;50.870;0.022;2022-09-13T01:26:51;20.50;78.30
37806;DHT22;25082;50.870;0.022;2022-09-13T01:34:55;20.50;78.30
37806;DHT22;25082;50.870;0.022;2022-09-13T01:43:13;20.50;78.30
37806;DHT22;25082;50.870;0.022;2022-09-13T01:56:52;20.50;78.40
37806;DHT22;25082;50.870;0.022;2022-09-13T01:59:21;20.50;78.40
37806;DHT22;25082;50.870;0.022;2022-09-13T02:02:08;20.50;78.30
37806;DHT22;25082;50.870;0.022;2022-09-13T02:04:45;20.50;78.30
37806;DHT22;25082;50.870;0.022;2022-09-13T02:07:30;20.50;78.30
37806;DHT22;25082;50.870;0.022;2022-09-13T02:10:04;20.50;78.40
37806;DHT22;25082;50.870;0.022;2022-09-13T02:12:33;20.50;78.40
37806;DHT22;25082;50.870;0.022;2022-09-13T02:15:30;20.50;78.40
37806;DHT22;25082;50.870;0.022;2022-09-13T02:18:06;20.50;78.40
37806;DHT22;25082;50.870;0.022;2022-09-13T02:20:37;20.50;78.40
37806;DHT22;25082;50.870;0.022;2022-09-13T02:23:13;20.50;78.40
37806;DHT22;25082;50.870;0.022;2022-09-13T02:25:40;20.50;78.40
37806;DHT22;25082;50.870;0.022;2022-09-13T02:28:10;20.50;78.40
37806;DHT22;25082;50.870;0.022;2022-09-13T02:30:40;20.50;78.40
37806;DHT22;25082;50.870;0.022;2022-09-13T02:33:22;20.50;78.40
37806;DHT22;25082;50.870;0.022;2022-09-13T02:36:04;20.50;78.40
37806;DHT22;25082;50.870;0.022;2022-09-13T02:38:34;20.50;78.40
37806;DHT22;25082;50.870;0.022;2022-09-13T02:41:11;20.50;78.40
37806;DHT22;25082;50.870;0.022;2022-09-13T02:43:42;20.50;78.50
37806;DHT22;25082;50.870;0.022;2022-09-13T02:46:20;20.50;78.40
37806;DHT22;25082;50.870;0.022;2022-09-13T02:49:08;20.50;78.40
37806;DHT22;25082;50.870;0.022;2022-09-13T02:54:31;20.50;78.40
37806;DHT22;25082;50.870;0.022;2022-09-13T02:57:05;20.50;78.40
37806;DHT22;25082;50.870;0.022;2022-09-13T02:59:31;20.50;78.40
37806;DHT22;25082;50.870;0.022;2022-09-13T03:04:27;20.50;78.40
37806;DHT22;25082;50.870;0.022;2022-09-13T03:06:53;20.50;78.40
37806;DHT22;25082;50.870;0.022;2022-09-13T03:09:19;20.50;78.40
37806;DHT22;25082;50.870;0.022;2022-09-13T03:20:13;20.50;78.50
37806;DHT22;25082;50.870;0.022;2022-09-13T03:23:04;20.50;78.40
37806;DHT22;25082;50.870;0.022;2022-09-13T03:28:41;20.50;78.50
37806;DHT22;25082;50.870;0.022;2022-09-13T03:36:46;20.50;78.50
37806;DHT22;25082;50.870;0.022;2022-09-13T03:39:34;20.50;78.50
37806;DHT22;25082;50.870;0.022;2022-09-13T03:42:08;20.50;78.50
37806;DHT22;25082;50.870;0.022;2022-09-13T03:44:38;20.50;78.50
37806;DHT22;25082;50.870;0.022;2022-09-13T03:47:06;20.50;78.40
37806;DHT22;25082;50.870;0.022;2022-09-13T03:49:32;20.50;78.40
37806;DHT22;25082;50.870;0.022;2022-09-13T03:51:58;20.50;78.50
37806;DHT22;25082;50.870;0.022;2022-09-13T03:54:28;20.50;78.40
37806;DHT22;25082;50.870;0.022;2022-09-13T03:57:10;20.50;78.50
37806;DHT22;25082;50.870;0.022;2022-09-13T03:59:40;20.50;78.50
37806;DHT22;25082;50.870;0.022;2022-09-13T04:02:07;20.50;78.40
37806;DHT22;25082;50.870;0.022;2022-09-13T04:04:37;20.50;78.50
37806;DHT22;25082;50.870;0.022;2022-09-13T04:07:03;20.50;78.40
37806;DHT22;25082;50.870;0.022;2022-09-13T04:09:30;20.50;78.50
37806;DHT22;25082;50.870;0.022;2022-09-13T04:11:56;20.50;78.50
37806;DHT22;25082;50.870;0.022;2022-09-13T04:14:22;20.50;78.50
37806;DHT22;25082;50.870;0.022;2022-09-13T04:16:54;20.50;78.50
37806;DHT22;25082;50.870;0.022;2022-09-13T04:19:21;20.50;78.50
37806;DHT22;25082;50.870;0.022;2022-09-13T04:21:48;20.50;78.50
37806;DHT22;25082;50.870;0.022;2022-09-13T04:24:14;20.50;78.50
37806;DHT22;25082;50.870;0.022;2022-09-13T04:26:40;20.50;78.50
37806;DHT22;25082;50.870;0.022;2022-09-13T04:29:06;20.50;78.50
37806;DHT22;25082;50.870;0.022;2022-09-13T04:31:32;20.50;78.40
37806;DHT22;25082;50.870;0.022;2022-09-13T04:33:57;20.50;78.50
37806;DHT22;25082;50.870;0.022;2022-09-13T04:36:25;20.50;78.50
37806;DHT22;25082;50.870;0.022;2022-09-13T04:38:50;20.40;78.40
37806;DHT22;25082;50.870;0.022;2022-09-13T04:41:16;20.50;78.40
37806;DHT22;25082;50.870;0.022;2022-09-13T04:43:42;20.50;78.50
37806;DHT22;25082;50.870;0.022;2022-09-13T04:46:08;20.50;78.40
37806;DHT22;25082;50.870;0.022;2022-09-13T04:48:34;20.40;78.90
37806;DHT22;25082;50.870;0.022;2022-09-13T04:51:03;20.50;78.50
37806;DHT22;25082;50.870;0.022;2022-09-13T04:53:30;20.50;78.40
37806;DHT22;25082;50.870;0.022;2022-09-13T04:56:03;20.50;78.40
37806;DHT22;25082;50.870;0.022;2022-09-13T04:58:30;20.50;78.50
37806;DHT22;25082;50.870;0.022;2022-09-13T05:01:03;20.50;78.40
37806;DHT22;25082;50.870;0.022;2022-09-13T05:03:33;20.50;78.40
37806;DHT22;25082;50.870;0.022;2022-09-13T05:06:10;20.50;78.50
37806;DHT22;25082;50.870;0.022;2022-09-13T05:08:37;20.50;78.40
37806;DHT22;25082;50.870;0.022;2022-09-13T05:11:03;20.50;78.50
37806;DHT22;25082;50.870;0.022;2022-09-13T05:13:30;20.50;78.40
37806;DHT22;25082;50.870;0.022;2022-09-13T05:15:57;20.50;78.50
37806;DHT22;25082;50.870;0.022;2022-09-13T05:18:25;20.50;78.50
37806;DHT22;25082;50.870;0.022;2022-09-13T05:20:55;20.50;78.50
37806;DHT22;25082;50.870;0.022;2022-09-13T05:23:22;20.50;79.00
37806;DHT22;25082;50.870;0.022;2022-09-13T05:26:02;20.40;78.40
37806;DHT22;25082;50.870;0.022;2022-09-13T05:28:30;20.50;79.10
37806;DHT22;25082;50.870;0.022;2022-09-13T05:31:00;20.50;78.50
37806;DHT22;25082;50.870;0.022;2022-09-13T05:33:28;20.50;78.50
37806;DHT22;25082;50.870;0.022;2022-09-13T05:35:54;20.50;78.50
37806;DHT22;25082;50.870;0.022;2022-09-13T05:38:20;20.50;78.50
37806;DHT22;25082;50.870;0.022;2022-09-13T05:40:46;20.50;78.50
37806;DHT22;25082;50.870;0.022;2022-09-13T05:43:12;20.50;78.50
37806;DHT22;25082;50.870;0.022;2022-09-13T05:45:38;20.40;78.40
37806;DHT22;25082;50.870;0.022;2022-09-13T05:48:04;20.40;78.40
37806;DHT22;25082;50.870;0.022;2022-09-13T05:50:30;20.40;78.50
37806;DHT22;25082;50.870;0.022;2022-09-13T05:52:56;20.50;78.50
37806;DHT22;25082;50.870;0.022;2022-09-13T05:55:22;20.40;78.50
37806;DHT22;25082;50.870;0.022;2022-09-13T05:57:48;20.50;78.50
37806;DHT22;25082;50.870;0.022;2022-09-13T06:00:15;20.50;78.60
37806;DHT22;25082;50.870;0.022;2022-09-13T06:02:41;20.50;78.50
37806;DHT22;25082;50.870;0.022;2022-09-13T06:05:08;20.50;78.50
37806;DHT22;25082;50.870;0.022;2022-09-13T06:07:35;20.40;78.50
37806;DHT22;25082;50.870;0.022;2022-09-13T06:10:02;20.50;78.50
37806;DHT22;25082;50.870;0.022;2022-09-13T06:12:29;20.40;78.50
37806;DHT22;25082;50.870;0.022;2022-09-13T06:14:55;20.40;78.50
37806;DHT22;25082;50.870;0.022;2022-09-13T06:17:21;20.40;78.50
37806;DHT22;25082;50.870;0.022;2022-09-13T06:19:46;20.40;78.50
37806;DHT22;25082;50.870;0.022;2022-09-13T06:22:12;20.50;78.50
37806;DHT22;25082;50.870;0.022;2022-09-13T06:24:38;20.40;78.50
37806;DHT22;25082;50.870;0.022;2022-09-13T06:27:03;20.50;78.60
37806;DHT22;25082;50.870;0.022;2022-09-13T06:29:30;20.50;78.50
37806;DHT22;25082;50.870;0.022;2022-09-13T06:31:56;20.50;78.60
37806;DHT22;25082;50.870;0.022;2022-09-13T06:34:22;20.50;78.50
37806;DHT22;25082;50.870;0.022;2022-09-13T06:36:48;20.50;78.60
37806;DHT22;25082;50.870;0.022;2022-09-13T06:39:14;20.40;78.60
37806;DHT22;25082;50.870;0.022;2022-09-13T06:41:39;20.50;78.50
37806;DHT22;25082;50.870;0.022;2022-09-13T06:44:05;20.50;78.50
37806;DHT22;25082;50.870;0.022;2022-09-13T06:46:33;20.50;78.60
37806;DHT22;25082;50.870;0.022;2022-09-13T06:49:01;20.50;78.60
37806;DHT22;25082;50.870;0.022;2022-09-13T06:51:28;20.50;78.60
37806;DHT22;25082;50.870;0.022;2022-09-13T06:53:54;20.50;78.60
37806;DHT22;25082;50.870;0.022;2022-09-13T06:56:31;20.50;78.70
37806;DHT22;25082;50.870;0.022;2022-09-13T06:58:59;20.50;78.60
37806;DHT22;25082;50.870;0.022;2022-09-13T07:01:28;20.50;78.60
37806;DHT22;25082;50.870;0.022;2022-09-13T07:04:03;20.50;78.60
37806;DHT22;25082;50.870;0.022;2022-09-13T07:06:31;20.50;78.70
37806;DHT22;25082;50.870;0.022;2022-09-13T07:08:59;20.50;78.60
37806;DHT22;25082;50.870;0.022;2022-09-13T07:11:28;20.50;78.60
37806;DHT22;25082;50.870;0.022;2022-09-13T07:13:55;20.50;78.60
37806;DHT22;25082;50.870;0.022;2022-09-13T07:16:24;20.50;78.60
37806;DHT22;25082;50.870;0.022;2022-09-13T07:18:54;20.50;78.60
37806;DHT22;25082;50.870;0.022;2022-09-13T07:21:21;20.50;78.60
37806;DHT22;25082;50.870;0.022;2022-09-13T07:23:48;20.50;79.10
37806;DHT22;25082;50.870;0.022;2022-09-13T07:26:14;20.40;78.60
37806;DHT22;25082;50.870;0.022;2022-09-13T07:28:42;20.50;78.60
37806;DHT22;25082;50.870;0.022;2022-09-13T07:33:39;20.50;78.70
37806;DHT22;25082;50.870;0.022;2022-09-13T07:36:05;20.50;78.70
37806;DHT22;25082;50.870;0.022;2022-09-13T07:38:35;20.50;78.60
37806;DHT22;25082;50.870;0.022;2022-09-13T07:41:02;20.50;78.70
37806;DHT22;25082;50.870;0.022;2022-09-13T07:43:31;20.50;79.20
37806;DHT22;25082;50.870;0.022;2022-09-13T07:45:59;20.50;78.70
37806;DHT22;25082;50.870;0.022;2022-09-13T07:48:26;20.50;78.70
37806;DHT22;25082;50.870;0.022;2022-09-13T07:51:00;20.50;78.60
37806;DHT22;25082;50.870;0.022;2022-09-13T07:53:26;20.50;78.70
37806;DHT22;25082;50.870;0.022;2022-09-13T07:55:53;20.50;78.60
37806;DHT22;25082;50.870;0.022;2022-09-13T07:58:19;20.50;78.60
37806;DHT22;25082;50.870;0.022;2022-09-13T08:00:45;20.50;78.70
37806;DHT22;25082;50.870;0.022;2022-09-13T08:03:10;20.50;79.30
37806;DHT22;25082;50.870;0.022;2022-09-13T08:05:40;20.50;78.70
37806;DHT22;25082;50.870;0.022;2022-09-13T08:08:06;20.60;78.70
37806;DHT22;25082;50.870;0.022;2022-09-13T08:10:33;20.50;78.60
37806;DHT22;25082;50.870;0.022;2022-09-13T08:12:59;20.50;78.80
37806;DHT22;25082;50.870;0.022;2022-09-13T08:15:25;20.50;78.70
37806;DHT22;25082;50.870;0.022;2022-09-13T08:17:51;20.50;78.70
37806;DHT22;25082;50.870;0.022;2022-09-13T08:20:19;20.50;78.80
37806;DHT22;25082;50.870;0.022;2022-09-13T08:22:45;20.50;78.70
37806;DHT22;25082;50.870;0.022;2022-09-13T08:25:11;20.50;78.70
37806;DHT22;25082;50.870;0.022;2022-09-13T08:27:36;20.50;78.70
37806;DHT22;25082;50.870;0.022;2022-09-13T08:30:02;20.50;78.70
37806;DHT22;25082;50.870;0.022;2022-09-13T08:32:29;20.50;78.70
37806;DHT22;25082;50.870;0.022;2022-09-13T08:34:55;20.50;78.70
37806;DHT22;25082;50.870;0.022;2022-09-13T08:37:21;20.50;78.70
37806;DHT22;25082;50.870;0.022;2022-09-13T08:39:46;20.50;78.70
37806;DHT22;25082;50.870;0.022;2022-09-13T08:42:19;20.50;78.70
37806;DHT22;25082;50.870;0.022;2022-09-13T08:44:52;20.50;78.70
37806;DHT22;25082;50.870;0.022;2022-09-13T08:50:24;20.50;78.80
37806;DHT22;25082;50.870;0.022;2022-09-13T09:00:58;20.50;78.80
37806;DHT22;25082;50.870;0.022;2022-09-13T09:06:37;20.50;78.80
37806;DHT22;25082;50.870;0.022;2022-09-13T09:09:05;20.50;78.70
37806;DHT22;25082;50.870;0.022;2022-09-13T09:11:55;20.50;78.70
37806;DHT22;25082;50.870;0.022;2022-09-13T09:14:37;20.60;78.80
37806;DHT22;25082;50.870;0.022;2022-09-13T09:17:22;20.50;78.80
37806;DHT22;25082;50.870;0.022;2022-09-13T09:19:51;20.50;78.80
37806;DHT22;25082;50.870;0.022;2022-09-13T09:22:20;20.60;79.20
37806;DHT22;25082;50.870;0.022;2022-09-13T09:24:52;20.50;78.80
37806;DHT22;25082;50.870;0.022;2022-09-13T09:27:19;20.50;78.80
37806;DHT22;25082;50.870;0.022;2022-09-13T09:29:47;20.60;78.70
37806;DHT22;25082;50.870;0.022;2022-09-13T09:32:31;20.60;78.70
37806;DHT22;25082;50.870;0.022;2022-09-13T09:38:35;20.60;78.70
37806;DHT22;25082;50.870;0.022;2022-09-13T09:41:26;20.60;78.70
37806;DHT22;25082;50.870;0.022;2022-09-13T09:44:19;20.60;79.30
37806;DHT22;25082;50.870;0.022;2022-09-13T09:47:09;20.60;78.70
37806;DHT22;25082;50.870;0.022;2022-09-13T09:50:31;20.60;78.80
37806;DHT22;25082;50.870;0.022;2022-09-13T09:53:15;20.60;78.80
37806;DHT22;25082;50.870;0.022;2022-09-13T09:55:58;20.60;78.90
37806;DHT22;25082;50.870;0.022;2022-09-13T09:58:42;20.60;78.90
37806;DHT22;25082;50.870;0.022;2022-09-13T10:06:37;20.60;79.00
37806;DHT22;25082;50.870;0.022;2022-09-13T10:09:04;20.60;78.90
37806;DHT22;25082;50.870;0.022;2022-09-13T10:11:49;20.60;78.90
37806;DHT22;25082;50.870;0.022;2022-09-13T10:14:34;20.60;78.80
37806;DHT22;25082;50.870;0.022;2022-09-13T10:17:24;20.60;78.80
37806;DHT22;25082;50.870;0.022;2022-09-13T10:19:58;20.60;78.90
37806;DHT22;25082;50.870;0.022;2022-09-13T10:22:26;20.60;78.90
37806;DHT22;25082;50.870;0.022;2022-09-13T10:24:53;20.60;78.90
37806;DHT22;25082;50.870;0.022;2022-09-13T10:27:33;20.60;79.00
37806;DHT22;25082;50.870;0.022;2022-09-13T10:30:02;20.60;78.80
37806;DHT22;25082;50.870;0.022;2022-09-13T10:32:31;20.60;78.80
37806;DHT22;25082;50.870;0.022;2022-09-13T10:35:15;20.60;78.90
37806;DHT22;25082;50.870;0.022;2022-09-13T10:37:43;20.60;78.80
37806;DHT22;25082;50.870;0.022;2022-09-13T10:42:51;20.60;78.90
37806;DHT22;25082;50.870;0.022;2022-09-13T10:45:22;20.60;78.80
37806;DHT22;25082;50.870;0.022;2022-09-13T10:47:50;20.60;78.80
37806;DHT22;25082;50.870;0.022;2022-09-13T10:50:23;20.60;78.70
37806;DHT22;25082;50.870;0.022;2022-09-13T10:52:52;20.60;78.70
37806;DHT22;25082;50.870;0.022;2022-09-13T10:57:45;20.60;78.70
37806;DHT22;25082;50.870;0.022;2022-09-13T11:00:13;20.70;78.80
37806;DHT22;25082;50.870;0.022;2022-09-13T11:22:57;20.60;78.80
37806;DHT22;25082;50.870;0.022;2022-09-13T11:25:50;20.60;78.70
37806;DHT22;25082;50.870;0.022;2022-09-13T11:33:49;20.60;78.80
37806;DHT22;25082;50.870;0.022;2022-09-13T11:36:37;20.60;78.90
37806;DHT22;25082;50.870;0.022;2022-09-13T11:45:22;20.60;78.90
37806;DHT22;25082;50.870;0.022;2022-09-13T11:56:43;20.60;78.90
37806;DHT22;25082;50.870;0.022;2022-09-13T12:05:05;20.60;78.80
37806;DHT22;25082;50.870;0.022;2022-09-13T12:07:40;20.60;78.80
37806;DHT22;25082;50.870;0.022;2022-09-13T12:10:16;20.60;78.70
37806;DHT22;25082;50.870;0.022;2022-09-13T12:12:44;20.60;78.70
37806;DHT22;25082;50.870;0.022;2022-09-13T12:15:21;20.60;78.60
37806;DHT22;25082;50.870;0.022;2022-09-13T12:17:51;20.60;78.70
37806;DHT22;25082;50.870;0.022;2022-09-13T12:20:42;20.60;78.60
37806;DHT22;25082;50.870;0.022;2022-09-13T12:23:14;20.60;78.60
37806;DHT22;25082;50.870;0.022;2022-09-13T12:28:49;20.70;78.70
37806;DHT22;25082;50.870;0.022;2022-09-13T12:31:19;20.60;78.60
37806;DHT22;25082;50.870;0.022;2022-09-13T12:33:46;20.60;78.60
37806;DHT22;25082;50.870;0.022;2022-09-13T12:36:31;20.60;78.60
37806;DHT22;25082;50.870;0.022;2022-09-13T12:44:48;20.60;78.60
37806;DHT22;25082;50.870;0.022;2022-09-13T13:01:26;20.70;78.80
37806;DHT22;25082;50.870;0.022;2022-09-13T13:04:07;20.60;78.70
37806;DHT22;25082;50.870;0.022;2022-09-13T13:06:40;20.70;78.80
37806;DHT22;25082;50.870;0.022;2022-09-13T13:12:32;20.60;78.70
37806;DHT22;25082;50.870;0.022;2022-09-13T13:15:01;20.60;78.70
37806;DHT22;25082;50.870;0.022;2022-09-13T13:17:49;20.70;78.80
37806;DHT22;25082;50.870;0.022;2022-09-13T13:20:43;20.70;78.80
37806;DHT22;25082;50.870;0.022;2022-09-13T13:23:24;20.60;78.70
37806;DHT22;25082;50.870;0.022;2022-09-13T13:36:43;20.70;78.80
37806;DHT22;25082;50.870;0.022;2022-09-13T14:00:24;20.60;78.70
37806;DHT22;25082;50.870;0.022;2022-09-13T14:11:02;20.70;78.90
37806;DHT22;25082;50.870;0.022;2022-09-13T14:22:13;20.70;78.80
37806;DHT22;25082;50.870;0.022;2022-09-13T14:24:41;20.70;78.90
37806;DHT22;25082;50.870;0.022;2022-09-13T14:27:19;20.70;78.90
37806;DHT22;25082;50.870;0.022;2022-09-13T14:29:52;20.70;79.40
37806;DHT22;25082;50.870;0.022;2022-09-13T14:32:24;20.60;78.80
37806;DHT22;25082;50.870;0.022;2022-09-13T14:34:59;20.60;78.80
37806;DHT22;25082;50.870;0.022;2022-09-13T14:37:30;20.70;78.90
37806;DHT22;25082;50.870;0.022;2022-09-13T14:42:42;20.70;78.90
37806;DHT22;25082;50.870;0.022;2022-09-13T14:47:54;20.70;78.90
37806;DHT22;25082;50.870;0.022;2022-09-13T14:50:31;20.70;79.00
37806;DHT22;25082;50.870;0.022;2022-09-13T14:53:03;20.70;78.90
37806;DHT22;25082;50.870;0.022;2022-09-13T14:55:37;20.70;78.90
37806;DHT22;25082;50.870;0.022;2022-09-13T14:58:07;20.70;79.00
37806;DHT22;25082;50.870;0.022;2022-09-13T15:00:48;20.70;78.90
37806;DHT22;25082;50.870;0.022;2022-09-13T15:03:15;20.70;78.90
37806;DHT22;25082;50.870;0.022;2022-09-13T15:05:56;20.70;78.90
37806;DHT22;25082;50.870;0.022;2022-09-13T15:10:59;20.70;78.90
37806;DHT22;25082;50.870;0.022;2022-09-13T15:13:25;20.70;78.90
37806;DHT22;25082;50.870;0.022;2022-09-13T15:15:51;20.70;79.00
37806;DHT22;25082;50.870;0.022;2022-09-13T15:20:54;20.70;79.00
37806;DHT22;25082;50.870;0.022;2022-09-13T15:23:26;20.70;78.90
37806;DHT22;25082;50.870;0.022;2022-09-13T15:26:19;20.70;79.00
37806;DHT22;25082;50.870;0.022;2022-09-13T15:28:54;20.70;79.00
37806;DHT22;25082;50.870;0.022;2022-09-13T15:31:28;20.70;79.10
37806;DHT22;25082;50.870;0.022;2022-09-13T15:36:41;20.70;79.00
37806;DHT22;25082;50.870;0.022;2022-09-13T15:41:35;20.70;79.10
37806;DHT22;25082;50.870;0.022;2022-09-13T15:44:03;20.70;79.10
37806;DHT22;25082;50.870;0.022;2022-09-13T15:46:29;20.70;79.10
37806;DHT22;25082;50.870;0.022;2022-09-13T15:48:58;20.70;79.20
37806;DHT22;25082;50.870;0.022;2022-09-13T15:51:24;20.70;79.10
37806;DHT22;25082;50.870;0.022;2022-09-13T15:53:51;20.70;79.20
37806;DHT22;25082;50.870;0.022;2022-09-13T15:56:44;20.70;79.20
37806;DHT22;25082;50.870;0.022;2022-09-13T15:59:15;20.70;79.20
37806;DHT22;25082;50.870;0.022;2022-09-13T16:01:42;20.70;79.30
37806;DHT22;25082;50.870;0.022;2022-09-13T16:04:08;20.70;79.40
37806;DHT22;25082;50.870;0.022;2022-09-13T16:06:34;20.70;79.30
37806;DHT22;25082;50.870;0.022;2022-09-13T16:09:00;20.70;79.30
37806;DHT22;25082;50.870;0.022;2022-09-13T16:11:27;20.70;79.40
37806;DHT22;25082;50.870;0.022;2022-09-13T16:13:52;20.70;79.50
37806;DHT22;25082;50.870;0.022;2022-09-13T16:16:18;20.70;79.40
37806;DHT22;25082;50.870;0.022;2022-09-13T16:18:44;20.70;79.60
37806;DHT22;25082;50.870;0.022;2022-09-13T16:21:10;20.70;79.40
37806;DHT22;25082;50.870;0.022;2022-09-13T16:23:35;20.70;79.40
37806;DHT22;25082;50.870;0.022;2022-09-13T16:26:03;20.70;79.40
37806;DHT22;25082;50.870;0.022;2022-09-13T16:28:29;20.70;79.40
37806;DHT22;25082;50.870;0.022;2022-09-13T16:30:55;20.70;79.30
37806;DHT22;25082;50.870;0.022;2022-09-13T16:33:21;20.70;79.40
37806;DHT22;25082;50.870;0.022;2022-09-13T16:35:47;20.70;79.40
37806;DHT22;25082;50.870;0.022;2022-09-13T16:38:13;20.70;79.40
37806;DHT22;25082;50.870;0.022;2022-09-13T16:40:40;20.70;79.30
37806;DHT22;25082;50.870;0.022;2022-09-13T16:43:06;20.70;79.40
37806;DHT22;25082;50.870;0.022;2022-09-13T16:45:32;20.70;79.40
37806;DHT22;25082;50.870;0.022;2022-09-13T16:47:58;20.70;79.30
37806;DHT22;25082;50.870;0.022;2022-09-13T16:50:24;20.70;79.30
37806;DHT22;25082;50.870;0.022;2022-09-13T16:52:49;20.70;79.30
37806;DHT22;25082;50.870;0.022;2022-09-13T16:55:15;20.70;79.30
37806;DHT22;25082;50.870;0.022;2022-09-13T16:57:41;20.70;79.40
37806;DHT22;25082;50.870;0.022;2022-09-13T17:00:09;20.70;79.30
37806;DHT22;25082;50.870;0.022;2022-09-13T17:02:36;20.70;79.40
37806;DHT22;25082;50.870;0.022;2022-09-13T17:05:03;20.70;79.40
37806;DHT22;25082;50.870;0.022;2022-09-13T17:07:32;20.70;79.40
37806;DHT22;25082;50.870;0.022;2022-09-13T17:09:58;20.70;79.30
37806;DHT22;25082;50.870;0.022;2022-09-13T17:12:24;20.70;79.30
37806;DHT22;25082;50.870;0.022;2022-09-13T17:14:50;20.70;79.40
37806;DHT22;25082;50.870;0.022;2022-09-13T17:17:16;20.70;79.30
37806;DHT22;25082;50.870;0.022;2022-09-13T17:19:42;20.70;79.40
37806;DHT22;25082;50.870;0.022;2022-09-13T17:22:09;20.70;79.30
37806;DHT22;25082;50.870;0.022;2022-09-13T17:24:36;20.70;79.40
37806;DHT22;25082;50.870;0.022;2022-09-13T17:27:03;20.70;79.40
37806;DHT22;25082;50.870;0.022;2022-09-13T17:29:31;20.70;79.40
37806;DHT22;25082;50.870;0.022;2022-09-13T17:31:58;20.70;79.40
37806;DHT22;25082;50.870;0.022;2022-09-13T17:34:24;20.70;79.40
37806;DHT22;25082;50.870;0.022;2022-09-13T17:36:50;20.70;79.40
37806;DHT22;25082;50.870;0.022;2022-09-13T17:39:17;20.70;79.30
37806;DHT22;25082;50.870;0.022;2022-09-13T17:41:43;20.70;79.40
37806;DHT22;25082;50.870;0.022;2022-09-13T17:44:09;20.60;79.30
37806;DHT22;25082;50.870;0.022;2022-09-13T17:46:36;20.70;79.40
37806;DHT22;25082;50.870;0.022;2022-09-13T17:49:02;20.70;79.30
37806;DHT22;25082;50.870;0.022;2022-09-13T17:51:30;20.70;79.30
37806;DHT22;25082;50.870;0.022;2022-09-13T17:54:00;20.70;79.30
37806;DHT22;25082;50.870;0.022;2022-09-13T17:56:35;20.60;79.20
37806;DHT22;25082;50.870;0.022;2022-09-13T17:59:12;20.60;79.20
37806;DHT22;25082;50.870;0.022;2022-09-13T18:01:43;20.70;79.90
37806;DHT22;25082;50.870;0.022;2022-09-13T18:04:11;20.70;79.30
37806;DHT22;25082;50.870;0.022;2022-09-13T18:06:38;20.70;79.20
37806;DHT22;25082;50.870;0.022;2022-09-13T18:09:11;20.70;79.30
37806;DHT22;25082;50.870;0.022;2022-09-13T18:11:38;20.70;79.20
37806;DHT22;25082;50.870;0.022;2022-09-13T18:14:05;20.60;79.00
37806;DHT22;25082;50.870;0.022;2022-09-13T18:16:31;20.70;79.20
37806;DHT22;25082;50.870;0.022;2022-09-13T18:18:59;20.60;79.10
37806;DHT22;25082;50.870;0.022;2022-09-13T18:21:25;20.70;79.10
37806;DHT22;25082;50.870;0.022;2022-09-13T18:23:54;20.70;79.10
37806;DHT22;25082;50.870;0.022;2022-09-13T18:26:24;20.70;79.10
37806;DHT22;25082;50.870;0.022;2022-09-13T18:28:58;20.70;79.10
37806;DHT22;25082;50.870;0.022;2022-09-13T18:31:26;20.70;79.10
37806;DHT22;25082;50.870;0.022;2022-09-13T18:33:58;20.60;79.00
37806;DHT22;25082;50.870;0.022;2022-09-13T18:36:24;20.70;79.10
37806;DHT22;25082;50.870;0.022;2022-09-13T18:38:51;20.70;79.10
37806;DHT22;25082;50.870;0.022;2022-09-13T18:41:26;20.70;79.10
37806;DHT22;25082;50.870;0.022;2022-09-13T18:43:53;20.60;79.00
37806;DHT22;25082;50.870;0.022;2022-09-13T18:46:22;20.60;79.00
37806;DHT22;25082;50.870;0.022;2022-09-13T18:48:52;20.60;79.00
37806;DHT22;25082;50.870;0.022;2022-09-13T18:51:20;20.70;79.00
37806;DHT22;25082;50.870;0.022;2022-09-13T18:53:47;20.60;78.90
37806;DHT22;25082;50.870;0.022;2022-09-13T18:56:16;20.60;78.90
37806;DHT22;25082;50.870;0.022;2022-09-13T18:58:43;20.60;78.90
37806;DHT22;25082;50.870;0.022;2022-09-13T19:01:16;20.60;78.80
37806;DHT22;25082;50.870;0.022;2022-09-13T19:06:21;20.70;78.90
37806;DHT22;25082;50.870;0.022;2022-09-13T19:08:48;20.60;78.80
37806;DHT22;25082;50.870;0.022;2022-09-13T19:11:16;20.60;78.80
37806;DHT22;25082;50.870;0.022;2022-09-13T19:13:42;20.70;78.80
37806;DHT22;25082;50.870;0.022;2022-09-13T19:16:12;20.70;78.80
37806;DHT22;25082;50.870;0.022;2022-09-13T19:18:40;20.60;78.70
37806;DHT22;25082;50.870;0.022;2022-09-13T19:21:09;20.60;78.70
37806;DHT22;25082;50.870;0.022;2022-09-13T19:23:37;20.60;78.70
37806;DHT22;25082;50.870;0.022;2022-09-13T19:28:38;20.60;78.60
37806;DHT22;25082;50.870;0.022;2022-09-13T19:31:08;20.60;78.70
37806;DHT22;25082;50.870;0.022;2022-09-13T19:33:36;20.60;78.60
37806;DHT22;25082;50.870;0.022;2022-09-13T19:36:07;20.70;78.70